createdAt,value
2023-03-26T00:01:36.720Z,1.43
2023-03-26T00:04:08.458Z,1.63
2023-03-26T00:06:39.610Z,1.83
2023-03-26T00:09:09.505Z,1.30
2023-03-26T00:11:37.723Z,1.27
2023-03-26T00:14:06.512Z,1.83
2023-03-26T00:16:34.732Z,1.37
2023-03-26T00:19:05.077Z,2.00
2023-03-26T00:21:34.968Z,1.83
2023-03-26T00:24:05.379Z,2.37
2023-03-26T00:26:37.623Z,1.60
2023-03-26T00:29:10.292Z,1.57
2023-03-26T00:31:39.849Z,2.10
2023-03-26T00:34:10.520Z,2.60
2023-03-26T00:36:42.290Z,1.80
2023-03-26T00:39:14.508Z,1.70
2023-03-26T00:41:43.498Z,1.97
2023-03-26T00:44:12.592Z,1.43
2023-03-26T00:46:40.981Z,1.30
2023-03-26T00:49:11.011Z,1.87
2023-03-26T00:51:41.181Z,1.70
2023-03-26T00:54:12.062Z,1.60
2023-03-26T00:56:41.239Z,2.10
2023-03-26T00:59:11.782Z,1.53
2023-03-26T01:01:43.040Z,1.70
2023-03-26T01:04:28.441Z,2.10
2023-03-26T01:07:02.729Z,1.70
2023-03-26T01:09:36.966Z,1.30
2023-03-26T01:12:11.859Z,1.77
2023-03-26T01:14:40.314Z,1.60
2023-03-26T01:17:12.804Z,1.47
2023-03-26T01:19:46.733Z,1.53
2023-03-26T01:22:18.878Z,1.40
2023-03-26T01:24:53.897Z,1.87
2023-03-26T01:27:33.932Z,1.73
2023-03-26T01:30:11.782Z,1.60
2023-03-26T01:33:01.018Z,1.80
2023-03-26T01:35:42.796Z,1.23
2023-03-26T01:38:24.414Z,2.37
2023-03-26T01:41:00.818Z,1.90
2023-03-26T01:43:34.399Z,1.70
2023-03-26T01:46:07.484Z,1.80
2023-03-26T01:48:38.191Z,1.60
2023-03-26T01:51:09.141Z,1.47
2023-03-26T01:53:42.747Z,2.00
2023-03-26T01:56:19.840Z,1.50
2023-03-26T01:59:00.792Z,2.33
2023-03-26T02:01:37.429Z,3.43
2023-03-26T02:04:17.491Z,1.40
2023-03-26T02:06:48.654Z,1.60
2023-03-26T02:09:22.367Z,1.73
2023-03-26T02:11:52.425Z,1.70
2023-03-26T02:14:20.562Z,1.67
2023-03-26T02:16:48.680Z,2.03
2023-03-26T02:19:21.854Z,1.80
2023-03-26T02:21:52.295Z,1.90
2023-03-26T02:24:21.697Z,1.77
2023-03-26T02:26:58.137Z,1.50
2023-03-26T02:29:28.516Z,2.30
2023-03-26T02:31:56.857Z,1.83
2023-03-26T02:34:25.116Z,1.53
2023-03-26T02:36:58.167Z,1.97
2023-03-26T02:39:27.722Z,2.70
2023-03-26T02:42:00.865Z,1.70
2023-03-26T02:44:30.684Z,2.27
2023-03-26T02:46:59.318Z,2.10
2023-03-26T02:49:46.264Z,1.50
2023-03-26T02:52:21.130Z,1.90
2023-03-26T02:54:51.091Z,3.83
2023-03-26T02:57:23.010Z,1.50
2023-03-26T03:00:05.676Z,2.23
2023-03-26T03:02:44.459Z,1.97
2023-03-26T03:05:34.018Z,2.20
2023-03-26T03:08:21.816Z,1.90
2023-03-26T03:11:10.739Z,1.47
2023-03-26T03:13:45.015Z,2.37
2023-03-26T03:16:16.987Z,1.97
2023-03-26T03:18:46.539Z,1.40
2023-03-26T03:21:14.894Z,2.07
2023-03-26T03:23:44.463Z,1.97
2023-03-26T03:26:21.599Z,1.70
2023-03-26T03:28:56.114Z,1.80
2023-03-26T03:31:25.561Z,2.10
2023-03-26T03:33:56.808Z,2.43
2023-03-26T03:36:27.745Z,2.60
2023-03-26T03:39:06.575Z,1.97
2023-03-26T03:41:36.345Z,1.70
2023-03-26T03:44:10.068Z,1.80
2023-03-26T03:46:37.941Z,2.40
2023-03-26T03:49:06.015Z,1.57
2023-03-26T03:51:37.388Z,2.13
2023-03-26T03:54:12.872Z,1.90
2023-03-26T03:57:03.302Z,1.70
2023-03-26T03:59:47.996Z,1.40
2023-03-26T04:02:26.649Z,2.67
2023-03-26T04:04:59.339Z,2.90
2023-03-26T04:07:32.132Z,2.00
2023-03-26T04:10:07.426Z,2.33
2023-03-26T04:12:53.975Z,1.83
2023-03-26T04:15:36.393Z,1.90
2023-03-26T04:18:13.162Z,2.07
2023-03-26T04:20:47.615Z,1.90
2023-03-26T04:23:22.873Z,1.93
2023-03-26T04:25:59.068Z,2.53
2023-03-26T04:28:46.333Z,1.83
2023-03-26T04:31:39.243Z,1.90
2023-03-26T04:34:14.371Z,2.80
2023-03-26T04:36:55.978Z,2.47
2023-03-26T04:39:29.922Z,2.90
2023-03-26T04:42:19.931Z,2.80
2023-03-26T04:45:11.221Z,1.93
2023-03-26T04:47:46.469Z,1.80
2023-03-26T04:50:16.030Z,2.40
2023-03-26T04:52:45.490Z,1.87
2023-03-26T04:55:37.845Z,2.40
2023-03-26T04:58:17.195Z,2.13
2023-03-26T05:00:53.699Z,1.97
2023-03-26T05:03:31.897Z,2.47
2023-03-26T05:06:05.035Z,2.30
2023-03-26T05:08:34.179Z,3.37
2023-03-26T05:11:02.115Z,2.53
2023-03-26T05:13:36.091Z,2.50
2023-03-26T05:16:14.739Z,2.07
2023-03-26T05:18:51.517Z,1.80
2023-03-26T05:21:20.267Z,3.07
2023-03-26T05:23:48.131Z,2.50
2023-03-26T05:26:21.002Z,1.80
2023-03-26T05:28:52.636Z,1.60
2023-03-26T05:31:27.005Z,3.03
2023-03-26T05:36:29.100Z,2.20
2023-03-26T05:39:18.851Z,2.20
2023-03-26T05:42:07.845Z,1.73
2023-03-26T05:45:11.980Z,1.77
2023-03-26T05:47:43.049Z,2.33
2023-03-26T05:50:13.226Z,2.70
2023-03-26T05:52:44.581Z,2.03
2023-03-26T05:55:28.874Z,2.10
2023-03-26T05:58:16.233Z,2.13
2023-03-26T06:01:25.728Z,1.90
2023-03-26T06:04:20.251Z,2.77
2023-03-26T06:07:10.079Z,2.10
2023-03-26T06:09:39.995Z,2.10
2023-03-26T06:12:12.277Z,1.90
2023-03-26T06:14:42.723Z,1.80
2023-03-26T06:17:19.209Z,2.27
2023-03-26T06:22:42.949Z,2.00
2023-03-26T06:25:19.318Z,1.80
2023-03-26T06:28:10.778Z,2.80
2023-03-26T06:31:00.702Z,1.77
2023-03-26T06:33:53.258Z,1.83
2023-03-26T06:36:21.613Z,2.13
2023-03-26T06:38:55.391Z,2.20
2023-03-26T06:41:23.492Z,1.93
2023-03-26T06:44:09.838Z,2.20
2023-03-26T06:47:01.102Z,2.50
2023-03-26T06:49:49.458Z,2.60
2023-03-26T06:52:35.988Z,1.70
2023-03-26T06:55:31.528Z,2.43
2023-03-26T06:58:12.593Z,2.30
2023-03-26T07:01:00.751Z,2.27
2023-03-26T07:03:47.262Z,2.17
2023-03-26T07:06:34.114Z,2.63
2023-03-26T07:09:22.026Z,2.20
2023-03-26T07:12:10.914Z,2.03
2023-03-26T07:15:00.722Z,2.33
2023-03-26T07:17:55.381Z,2.43
2023-03-26T07:20:30.179Z,2.00
2023-03-26T07:22:58.851Z,2.20
2023-03-26T07:25:50.060Z,2.03
2023-03-26T07:28:26.688Z,2.53
2023-03-26T07:31:27.423Z,2.60
2023-03-26T07:34:47.203Z,2.83
2023-03-26T07:37:38.349Z,2.20
2023-03-26T07:40:29.928Z,2.70
2023-03-26T07:43:27.125Z,2.63
2023-03-26T07:46:20.891Z,2.60
2023-03-26T07:48:58.577Z,3.00
2023-03-26T07:51:37.172Z,2.13
2023-03-26T07:54:12.259Z,2.60
2023-03-26T07:57:20.971Z,2.73
2023-03-26T08:00:08.245Z,2.70
2023-03-26T08:03:15.096Z,2.60
2023-03-26T08:06:16.831Z,2.50
2023-03-26T08:09:04.200Z,2.00
2023-03-26T08:12:02.356Z,2.80
2023-03-26T08:14:46.559Z,2.20
2023-03-26T08:17:25.757Z,2.57
2023-03-26T08:20:07.461Z,2.70
2023-03-26T08:22:41.150Z,2.70
2023-03-26T08:25:20.847Z,2.73
2023-03-26T08:28:01.330Z,3.10
2023-03-26T08:30:30.951Z,2.90
2023-03-26T08:33:11.225Z,3.63
2023-03-26T08:35:42.729Z,2.40
2023-03-26T08:38:10.891Z,2.97
2023-03-26T08:41:02.982Z,2.13
2023-03-26T08:44:04.078Z,3.37
2023-03-26T08:47:14.371Z,2.90
2023-03-26T08:50:18.338Z,3.20
2023-03-26T08:53:18.827Z,2.50
2023-03-26T08:55:54.768Z,2.17
2023-03-26T08:59:15.532Z,2.40
2023-03-26T09:02:13.561Z,3.00
2023-03-26T09:05:16.350Z,2.73
2023-03-26T09:08:26.278Z,2.50
2023-03-26T09:11:26.876Z,2.70
2023-03-26T09:14:22.475Z,2.90
2023-03-26T09:17:26.698Z,2.60
2023-03-26T09:20:20.690Z,3.10
2023-03-26T09:23:08.124Z,2.10
2023-03-26T09:26:08.740Z,4.03
2023-03-26T09:29:33.417Z,2.87
2023-03-26T09:32:32.062Z,2.40
2023-03-26T09:35:16.974Z,2.80
2023-03-26T09:37:59.996Z,3.10
2023-03-26T09:40:38.762Z,2.57
2023-03-26T09:43:36.151Z,3.10
2023-03-26T09:46:21.709Z,2.50
2023-03-26T09:49:06.213Z,3.17
2023-03-26T09:51:53.417Z,2.60
2023-03-26T09:54:47.213Z,2.13
2023-03-26T09:57:30.409Z,2.20
2023-03-26T10:00:22.028Z,2.23
2023-03-26T10:03:27.416Z,2.13
2023-03-26T10:06:19.927Z,1.80
2023-03-26T10:09:01.400Z,2.37
2023-03-26T10:11:44.522Z,2.77
2023-03-26T10:14:24.028Z,2.53
2023-03-26T10:17:05.898Z,1.90
2023-03-26T10:19:50.869Z,1.67
2023-03-26T10:22:39.908Z,2.20
2023-03-26T10:25:33.668Z,1.60
2023-03-26T10:28:17.664Z,1.70
2023-03-26T10:31:12.836Z,1.30
2023-03-26T10:33:54.404Z,2.10
2023-03-26T10:36:29.956Z,1.33
2023-03-26T10:39:36.268Z,2.10
2023-03-26T10:42:24.655Z,1.80
2023-03-26T10:45:19.480Z,1.60
2023-03-26T10:48:00.123Z,1.60
2023-03-26T10:50:42.920Z,1.77
2023-03-26T10:53:19.723Z,1.90
2023-03-26T10:55:55.700Z,2.00
2023-03-26T10:58:27.358Z,1.50
2023-03-26T11:01:04.688Z,1.70
2023-03-26T11:03:51.943Z,1.50
2023-03-26T11:06:30.987Z,2.00
2023-03-26T11:09:12.267Z,1.40
2023-03-26T11:11:49.980Z,1.53
2023-03-26T11:14:34.173Z,1.43
2023-03-26T11:17:40.353Z,1.20
2023-03-26T11:20:08.456Z,1.30
2023-03-26T11:22:54.891Z,1.00
2023-03-26T11:25:31.505Z,1.37
2023-03-26T11:28:13.917Z,1.20
2023-03-26T11:30:50.096Z,1.23
2023-03-26T11:33:21.987Z,1.20
2023-03-26T11:35:54.147Z,1.17
2023-03-26T11:38:27.569Z,1.13
2023-03-26T11:40:59.007Z,1.00
2023-03-26T11:44:02.871Z,1.07
2023-03-26T11:46:34.683Z,1.20
2023-03-26T11:49:12.038Z,2.07
2023-03-26T11:51:43.030Z,1.17
2023-03-26T11:54:13.245Z,1.20
2023-03-26T11:57:05.461Z,1.53
2023-03-26T11:59:53.316Z,1.50
2023-03-26T12:02:32.628Z,1.20
2023-03-26T12:05:25.004Z,1.10
2023-03-26T12:07:58.665Z,2.20
2023-03-26T12:10:32.674Z,1.97
2023-03-26T12:13:03.594Z,0.97
2023-03-26T12:15:33.479Z,1.10
2023-03-26T12:18:21.789Z,1.17
2023-03-26T12:21:04.578Z,1.00
2023-03-26T12:23:39.486Z,1.10
2023-03-26T12:26:20.945Z,1.07
2023-03-26T12:28:51.466Z,1.20
2023-03-26T12:31:23.297Z,1.53
2023-03-26T12:34:08.363Z,1.10
2023-03-26T12:36:39.488Z,1.47
2023-03-26T12:40:08.826Z,1.60
2023-03-26T12:44:54.391Z,1.00
2023-03-26T12:45:17.342Z,1.20
2023-03-26T12:48:02.334Z,1.30
2023-03-26T12:50:51.143Z,1.00
2023-03-26T12:53:32.018Z,1.30
2023-03-26T12:56:11.024Z,1.10
2023-03-26T12:59:06.045Z,1.10
2023-03-26T13:01:44.980Z,1.30
2023-03-26T13:04:37.531Z,1.53
2023-03-26T13:07:17.085Z,1.33
2023-03-26T13:10:03.699Z,1.10
2023-03-26T13:12:41.265Z,1.10
2023-03-26T13:15:25.617Z,1.30
2023-03-26T13:18:08.868Z,0.97
2023-03-26T13:20:58.139Z,1.73
2023-03-26T13:23:40.449Z,1.93
2023-03-26T13:26:39.088Z,1.80
2023-03-26T13:29:15.840Z,1.77
2023-03-26T13:31:54.913Z,1.50
2023-03-26T13:34:36.540Z,1.50
2023-03-26T13:37:14.316Z,1.20
2023-03-26T13:39:56.645Z,1.20
2023-03-26T13:42:41.162Z,1.47
2023-03-26T13:45:25.295Z,1.00
2023-03-26T13:47:56.850Z,1.20
2023-03-26T13:50:29.020Z,1.10
2023-03-26T13:53:03.249Z,1.37
2023-03-26T13:55:37.454Z,1.50
2023-03-26T13:58:13.272Z,1.30
2023-03-26T14:00:54.445Z,1.00
2023-03-26T14:03:30.972Z,1.13
2023-03-26T14:06:04.965Z,1.23
2023-03-26T14:08:41.963Z,1.50
2023-03-26T14:11:13.912Z,1.70
2023-03-26T14:13:49.780Z,1.53
2023-03-26T14:16:22.556Z,1.30
2023-03-26T14:18:58.316Z,1.20
2023-03-26T14:21:43.176Z,1.53
2023-03-26T14:24:44.691Z,1.10
2023-03-26T14:27:25.755Z,0.90
2023-03-26T14:30:05.694Z,1.23
2023-03-26T14:32:52.752Z,1.10
2023-03-26T14:35:33.971Z,0.90
2023-03-26T14:38:24.836Z,1.30
2023-03-26T14:40:58.848Z,1.00
2023-03-26T14:43:50.482Z,2.23
2023-03-26T14:46:36.234Z,1.20
2023-03-26T14:49:47.268Z,0.93
2023-03-26T14:52:22.624Z,1.30
2023-03-26T14:54:55.582Z,0.90
2023-03-26T14:58:07.773Z,1.30
2023-03-26T15:01:18.356Z,1.80
2023-03-26T15:04:44.003Z,1.30
2023-03-26T15:07:36.884Z,1.00
2023-03-26T15:10:26.148Z,1.00
2023-03-26T15:13:26.342Z,1.20
2023-03-26T15:16:29.750Z,1.20
2023-03-26T15:19:26.898Z,1.00
2023-03-26T15:22:31.982Z,1.43
2023-03-26T15:25:37.781Z,1.57
2023-03-26T15:28:41.490Z,1.00
2023-03-26T15:31:37.264Z,1.20
2023-03-26T15:34:43.348Z,1.30
2023-03-26T15:37:44.521Z,1.27
2023-03-26T15:40:36.257Z,1.70
2023-03-26T15:43:12.407Z,1.20
2023-03-26T15:45:43.306Z,1.50
2023-03-26T15:48:35.546Z,1.20
2023-03-26T15:51:21.906Z,1.43
2023-03-26T15:53:58.854Z,1.10
2023-03-26T15:56:53.289Z,1.20
2023-03-26T15:59:43.251Z,1.50
2023-03-26T16:02:26.518Z,1.63
2023-03-26T16:05:08.298Z,1.93
2023-03-26T16:07:52.762Z,1.20
2023-03-26T16:10:30.272Z,1.03
2023-03-26T16:13:37.996Z,1.50
2023-03-26T16:16:23.965Z,1.60
2023-03-26T16:18:59.536Z,0.90
2023-03-26T16:21:45.739Z,1.30
2023-03-26T16:24:24.573Z,0.93
2023-03-26T16:27:08.175Z,0.90
2023-03-26T16:30:27.360Z,0.80
2023-03-26T16:32:58.699Z,0.80
2023-03-26T16:36:04.397Z,0.80
2023-03-26T16:38:55.750Z,0.70
2023-03-26T16:41:27.351Z,0.80
2023-03-26T16:44:15.651Z,0.70
2023-03-26T16:46:57.869Z,0.80
2023-03-26T16:49:38.689Z,1.30
2023-03-26T16:52:25.684Z,1.20
2023-03-26T16:55:07.637Z,0.90
2023-03-26T16:57:42.473Z,1.20
2023-03-26T17:00:43.838Z,1.30
2023-03-26T17:03:37.567Z,1.00
2023-03-26T17:06:34.175Z,1.33
2023-03-26T17:09:09.460Z,1.17
2023-03-26T17:11:53.160Z,1.27
2023-03-26T17:14:32.107Z,1.20
2023-03-26T17:17:13.236Z,1.37
2023-03-26T17:19:50.318Z,0.83
2023-03-26T17:22:31.142Z,1.00
2023-03-26T17:25:04.872Z,1.03
2023-03-26T17:28:15.866Z,0.93
2023-03-26T17:31:03.272Z,1.10
2023-03-26T17:33:38.961Z,0.97
2023-03-26T17:36:41.343Z,1.30
2023-03-26T17:39:46.814Z,1.40
2023-03-26T17:42:25.908Z,1.40
2023-03-26T17:44:57.092Z,1.10
2023-03-26T17:47:44.977Z,1.40
2023-03-26T17:50:21.169Z,1.50
2023-03-26T17:52:58.342Z,1.53
2023-03-26T17:55:31.385Z,1.10
2023-03-26T17:58:01.149Z,1.00
2023-03-26T18:00:34.480Z,1.30
2023-03-26T18:03:08.995Z,1.50
2023-03-26T18:05:49.538Z,1.10
2023-03-26T18:08:37.124Z,1.20
2023-03-26T18:11:27.943Z,1.10
2023-03-26T18:14:13.613Z,1.10
2023-03-26T18:16:50.502Z,1.33
2023-03-26T18:19:21.981Z,1.00
2023-03-26T18:21:51.931Z,1.10
2023-03-26T18:24:37.543Z,1.10
2023-03-26T18:27:12.228Z,1.63
2023-03-26T18:29:45.864Z,1.30
2023-03-26T18:32:23.963Z,1.33
2023-03-26T18:34:57.342Z,1.10
2023-03-26T18:37:29.534Z,1.53
2023-03-26T18:40:07.444Z,1.77
2023-03-26T18:42:35.615Z,1.47
2023-03-26T18:45:10.783Z,1.20
2023-03-26T18:47:45.209Z,1.27
2023-03-26T18:50:18.901Z,1.97
2023-03-26T18:52:47.321Z,1.30
2023-03-26T18:55:17.068Z,1.10
2023-03-26T18:57:46.241Z,1.27
2023-03-26T19:00:22.045Z,1.50
2023-03-26T19:03:00.808Z,1.20
2023-03-26T19:05:29.500Z,1.23
2023-03-26T19:08:00.318Z,1.40
2023-03-26T19:10:28.580Z,1.20
2023-03-26T19:12:57.759Z,1.53
2023-03-26T19:15:28.212Z,1.17
2023-03-26T19:18:06.860Z,1.67
2023-03-26T19:20:42.433Z,1.40
2023-03-26T19:23:16.563Z,2.03
2023-03-26T19:25:48.135Z,1.40
2023-03-26T19:28:21.038Z,1.27
2023-03-26T19:30:54.883Z,1.80
2023-03-26T19:33:36.384Z,1.47
2023-03-26T19:36:19.001Z,1.43
2023-03-26T19:38:52.524Z,1.20
2023-03-26T19:41:24.923Z,1.40
2023-03-26T19:43:56.091Z,1.80
2023-03-26T19:46:27.855Z,2.20
2023-03-26T19:48:59.067Z,1.47
2023-03-26T19:51:33.496Z,2.33
2023-03-26T19:54:04.611Z,1.80
2023-03-26T19:56:33.761Z,1.50
2023-03-26T19:59:05.225Z,1.17
2023-03-26T20:01:34.637Z,1.60
2023-03-26T20:04:06.633Z,1.10
2023-03-26T20:06:43.336Z,1.17
2023-03-26T20:09:14.187Z,1.20
2023-03-26T20:11:42.725Z,1.10
2023-03-26T20:14:15.502Z,1.50
2023-03-26T20:16:46.440Z,1.60
2023-03-26T20:19:19.172Z,1.90
2023-03-26T20:21:50.000Z,1.93
2023-03-26T20:24:21.833Z,2.03
2023-03-26T20:26:49.802Z,1.57
2023-03-26T20:29:18.195Z,1.40
2023-03-26T20:31:49.326Z,1.43
2023-03-26T20:34:23.517Z,1.90
2023-03-26T20:36:55.272Z,1.70
2023-03-26T20:39:24.305Z,1.70
2023-03-26T20:41:54.027Z,0.97
2023-03-26T20:44:22.654Z,1.43
2023-03-26T20:46:52.543Z,1.27
2023-03-26T20:49:22.867Z,1.37
2023-03-26T20:51:51.774Z,1.27
2023-03-26T20:54:23.105Z,1.30
2023-03-26T20:56:52.522Z,1.27
2023-03-26T20:59:22.492Z,1.00
2023-03-26T21:01:51.362Z,1.13
2023-03-26T21:04:22.384Z,1.10
2023-03-26T21:06:51.787Z,1.30
2023-03-26T21:09:24.259Z,1.17
2023-03-26T21:12:02.876Z,1.20
2023-03-26T21:14:34.698Z,1.10
2023-03-26T21:17:03.322Z,1.20
2023-03-26T21:19:36.237Z,1.07
2023-03-26T21:22:19.073Z,1.30
2023-03-26T21:25:04.391Z,1.20
2023-03-26T21:27:44.751Z,0.87
2023-03-26T21:30:16.823Z,0.90
2023-03-26T21:32:47.910Z,0.90
2023-03-26T21:35:18.784Z,0.90
2023-03-26T21:37:48.551Z,0.90
2023-03-26T21:40:18.286Z,0.80
2023-03-26T21:42:47.920Z,0.90
2023-03-26T21:45:21.975Z,1.03
2023-03-26T21:47:51.757Z,1.30
2023-03-26T21:50:25.029Z,1.37
2023-03-26T21:52:53.798Z,1.60
2023-03-26T21:55:23.604Z,1.10
2023-03-26T21:58:13.604Z,1.13
2023-03-26T22:00:54.863Z,1.23
2023-03-26T22:03:29.359Z,1.23
2023-03-26T22:06:07.049Z,1.30
2023-03-26T22:08:40.762Z,0.87
2023-03-26T22:11:12.539Z,1.03
2023-03-26T22:13:41.211Z,1.23
2023-03-26T22:16:14.032Z,1.20
2023-03-26T22:18:43.605Z,1.10
2023-03-26T22:21:14.515Z,1.20
2023-03-26T22:23:52.712Z,1.70
2023-03-26T22:26:23.422Z,1.23
2023-03-26T22:28:51.924Z,1.50
2023-03-26T22:31:20.016Z,1.30
2023-03-26T22:33:49.172Z,1.60
2023-03-26T22:36:22.752Z,1.87
2023-03-26T22:38:53.922Z,1.50
2023-03-26T22:41:25.780Z,1.70
2023-03-26T22:43:55.323Z,1.80
2023-03-26T22:46:24.170Z,1.47
2023-03-26T22:48:53.053Z,1.73
2023-03-26T22:51:25.454Z,1.90
2023-03-26T22:53:53.448Z,1.83
2023-03-26T22:56:22.022Z,1.97
2023-03-26T22:58:50.040Z,1.73
2023-03-26T23:01:21.329Z,2.03
2023-03-26T23:03:49.818Z,1.87
2023-03-26T23:06:18.227Z,2.30
2023-03-26T23:08:47.946Z,2.47
2023-03-26T23:11:18.464Z,1.90
2023-03-26T23:13:47.445Z,2.63
2023-03-26T23:16:16.772Z,2.40
2023-03-26T23:18:45.146Z,2.73
2023-03-26T23:21:15.459Z,2.30
2023-03-26T23:23:43.473Z,2.37
2023-03-26T23:26:12.704Z,2.23
2023-03-26T23:28:41.353Z,2.50
2023-03-26T23:31:14.132Z,2.40
2023-03-26T23:33:45.957Z,2.70
2023-03-26T23:36:17.777Z,3.23
2023-03-26T23:38:48.983Z,2.33
2023-03-26T23:41:22.537Z,2.33
2023-03-26T23:43:55.562Z,2.87
2023-03-26T23:46:25.821Z,2.30
2023-03-26T23:48:59.822Z,2.50
2023-03-26T23:51:30.280Z,2.10
2023-03-26T23:53:58.848Z,3.23
2023-03-26T23:56:29.670Z,2.40
2023-03-26T23:58:58.179Z,2.10
